createdAt,value
2023-03-23T00:00:11.636Z,25.30
2023-03-23T00:04:11.590Z,25.30
2023-03-23T00:08:11.569Z,25.29
2023-03-23T00:12:11.518Z,25.30
2023-03-23T00:16:11.469Z,25.29
2023-03-23T00:20:11.473Z,25.29
2023-03-23T00:24:11.446Z,25.29
2023-03-23T00:28:11.406Z,25.29
2023-03-23T00:32:11.327Z,25.28
2023-03-23T00:36:11.339Z,25.28
2023-03-23T00:40:11.302Z,25.28
2023-03-23T00:44:11.295Z,25.27
2023-03-23T00:48:11.195Z,25.28
2023-03-23T00:52:11.176Z,25.27
2023-03-23T00:56:11.154Z,25.27
2023-03-23T01:00:11.093Z,25.26
2023-03-23T01:04:11.058Z,25.27
2023-03-23T01:08:11.008Z,25.26
2023-03-23T01:12:10.984Z,25.26
2023-03-23T01:16:10.982Z,25.26
2023-03-23T01:20:11.008Z,25.26
2023-03-23T01:24:10.969Z,25.26
2023-03-23T01:28:10.949Z,25.27
2023-03-23T01:32:10.920Z,25.27
2023-03-23T01:36:10.918Z,25.26
2023-03-23T01:40:10.850Z,25.26
2023-03-23T01:44:10.816Z,25.26
2023-03-23T01:48:10.794Z,25.26
2023-03-23T01:52:10.753Z,25.26
2023-03-23T01:56:10.716Z,25.25
2023-03-23T02:00:10.668Z,25.25
2023-03-23T02:04:10.680Z,25.25
2023-03-23T02:08:10.661Z,25.25
2023-03-23T02:12:10.598Z,25.25
2023-03-23T02:16:10.580Z,25.25
2023-03-23T02:20:10.531Z,25.25
2023-03-23T02:24:10.510Z,25.25
2023-03-23T02:28:10.466Z,25.26
2023-03-23T02:32:10.427Z,25.25
2023-03-23T02:36:10.370Z,25.25
2023-03-23T02:40:10.358Z,25.24
2023-03-23T02:44:10.403Z,25.25
2023-03-23T02:48:10.547Z,25.24
2023-03-23T02:52:10.659Z,25.25
2023-03-23T02:56:10.882Z,25.24
2023-03-23T03:00:11.063Z,25.23
2023-03-23T03:04:11.261Z,25.25
2023-03-23T03:08:11.424Z,25.25
2023-03-23T03:12:11.443Z,25.25
2023-03-23T03:16:11.375Z,25.24
2023-03-23T03:20:11.329Z,25.23
2023-03-23T03:24:11.298Z,25.24
2023-03-23T03:28:11.259Z,25.24
2023-03-23T03:32:11.248Z,25.24
2023-03-23T03:36:11.191Z,25.23
2023-03-23T03:40:11.131Z,25.23
2023-03-23T03:44:11.123Z,25.23
2023-03-23T03:48:11.101Z,25.23
2023-03-23T03:52:11.262Z,25.24
2023-03-23T03:56:11.411Z,25.24
2023-03-23T04:00:11.605Z,25.23
2023-03-23T04:04:11.752Z,25.23
2023-03-23T04:08:11.725Z,25.23
2023-03-23T04:12:11.677Z,25.22
2023-03-23T04:16:11.625Z,25.23
2023-03-23T04:20:11.640Z,25.22
2023-03-23T04:24:23.102Z,25.23
2023-03-23T04:28:12.615Z,25.23
2023-03-23T04:32:11.512Z,25.22
2023-03-23T04:36:11.763Z,25.23
2023-03-23T04:40:11.689Z,25.22
2023-03-23T04:44:11.698Z,25.22
2023-03-23T04:48:11.635Z,25.22
2023-03-23T04:52:11.589Z,25.23
2023-03-23T04:56:11.559Z,25.22
2023-03-23T05:00:11.534Z,25.22
2023-03-23T05:04:11.508Z,25.22
2023-03-23T05:08:11.466Z,25.22
2023-03-23T05:12:11.413Z,25.22
2023-03-23T05:16:11.507Z,25.22
2023-03-23T05:20:11.490Z,25.22
2023-03-23T05:24:12.027Z,25.22
2023-03-23T05:28:12.002Z,25.22
2023-03-23T05:32:12.005Z,25.23
2023-03-23T05:36:12.086Z,25.23
2023-03-23T05:40:11.704Z,25.23
2023-03-23T05:44:11.661Z,25.25
2023-03-23T05:48:11.621Z,25.26
2023-03-23T05:52:11.585Z,25.27
2023-03-23T05:56:12.005Z,25.30
2023-03-23T06:00:11.530Z,25.36
2023-03-23T06:04:11.516Z,25.40
2023-03-23T06:08:11.448Z,25.45
2023-03-23T06:12:12.013Z,25.49
2023-03-23T06:16:11.611Z,25.48
2023-03-23T06:20:11.573Z,25.49
2023-03-23T06:24:11.625Z,25.48
2023-03-23T06:28:11.572Z,25.43
2023-03-23T06:32:11.521Z,25.40
2023-03-23T06:36:11.469Z,25.49
2023-03-23T06:40:11.574Z,25.53
2023-03-23T06:44:11.384Z,25.55
2023-03-23T06:48:11.399Z,25.60
2023-03-23T06:52:11.570Z,25.70
2023-03-23T06:56:11.275Z,25.84
2023-03-23T07:00:11.334Z,25.97
2023-03-23T07:04:11.342Z,26.02
2023-03-23T07:08:11.277Z,26.15
2023-03-23T07:12:11.185Z,26.25
2023-03-23T07:16:11.175Z,26.32
2023-03-23T07:20:11.603Z,26.34
2023-03-23T07:24:11.073Z,26.39
2023-03-23T07:28:11.095Z,26.42
2023-03-23T07:32:11.117Z,26.38
2023-03-23T07:36:11.129Z,26.37
2023-03-23T07:40:10.932Z,26.35
2023-03-23T07:44:10.888Z,26.36
2023-03-23T07:48:20.948Z,26.40
2023-03-23T07:52:11.800Z,26.50
2023-03-23T07:56:10.841Z,26.52
2023-03-23T08:00:11.046Z,26.53
2023-03-23T08:04:11.256Z,26.52
2023-03-23T08:08:11.242Z,26.50
2023-03-23T08:12:11.202Z,26.47
2023-03-23T08:16:11.280Z,26.45
2023-03-23T08:20:11.134Z,26.44
2023-03-23T08:24:11.102Z,26.31
2023-03-23T08:28:11.034Z,26.30
2023-03-23T08:32:11.022Z,26.21
2023-03-23T08:36:10.980Z,26.09
2023-03-23T08:40:10.963Z,25.97
2023-03-23T08:44:10.893Z,25.94
2023-03-23T08:48:10.860Z,25.95
2023-03-23T08:52:10.851Z,25.97
2023-03-23T08:56:10.785Z,25.92
2023-03-23T09:00:10.753Z,25.88
2023-03-23T09:04:10.824Z,25.89
2023-03-23T09:08:10.895Z,25.90
2023-03-23T09:12:11.011Z,25.93
2023-03-23T09:16:11.095Z,25.98
2023-03-23T09:20:11.631Z,26.01
2023-03-23T09:24:11.603Z,26.08
2023-03-23T09:28:11.361Z,26.00
2023-03-23T09:32:11.443Z,25.98
2023-03-23T09:36:11.585Z,25.86
2023-03-23T09:40:11.711Z,25.80
2023-03-23T09:44:11.673Z,26.03
2023-03-23T09:48:12.160Z,26.18
2023-03-23T09:52:11.703Z,26.28
2023-03-23T09:56:11.758Z,26.34
2023-03-23T10:00:12.141Z,26.38
2023-03-23T10:04:12.099Z,26.39
2023-03-23T10:08:12.671Z,26.50
2023-03-23T10:12:12.209Z,26.50
2023-03-23T10:16:12.176Z,26.53
2023-03-23T10:20:12.650Z,26.58
2023-03-23T10:24:12.134Z,26.53
2023-03-23T10:28:12.093Z,26.52
2023-03-23T10:32:12.168Z,26.64
2023-03-23T10:36:12.005Z,26.57
2023-03-23T10:40:11.957Z,26.44
2023-03-23T10:44:12.169Z,26.33
2023-03-23T10:48:11.879Z,26.20
2023-03-23T10:52:11.860Z,26.16
2023-03-23T10:56:11.845Z,26.13
2023-03-23T11:00:11.775Z,26.14
2023-03-23T11:04:11.762Z,26.16
2023-03-23T11:08:11.712Z,26.20
2023-03-23T11:12:11.686Z,26.23
2023-03-23T11:16:11.640Z,26.25
2023-03-23T11:20:11.697Z,26.26
2023-03-23T11:24:11.655Z,26.25
2023-03-23T11:28:11.672Z,26.23
2023-03-23T11:32:12.168Z,26.25
2023-03-23T11:36:11.732Z,26.24
2023-03-23T11:40:12.184Z,26.25
2023-03-23T11:44:11.737Z,26.26
2023-03-23T11:48:11.787Z,26.28
2023-03-23T11:52:11.884Z,26.25
2023-03-23T11:56:12.034Z,26.31
2023-03-23T12:00:11.976Z,26.37
2023-03-23T12:04:11.934Z,26.40
2023-03-23T12:08:11.916Z,26.41
2023-03-23T12:12:12.205Z,26.43
2023-03-23T12:16:12.226Z,26.45
2023-03-23T12:20:12.228Z,26.42
2023-03-23T12:24:11.762Z,26.40
2023-03-23T12:28:11.756Z,26.40
2023-03-23T12:32:11.717Z,26.41
2023-03-23T12:36:11.793Z,26.43
2023-03-23T12:40:11.962Z,26.45
2023-03-23T12:44:12.157Z,26.45
2023-03-23T12:48:12.096Z,26.45
2023-03-23T12:52:12.068Z,26.43
2023-03-23T12:56:12.064Z,26.43
2023-03-23T13:00:12.029Z,26.45
2023-03-23T13:04:12.000Z,26.44
2023-03-23T13:08:11.921Z,26.47
2023-03-23T13:12:11.877Z,26.48
2023-03-23T13:16:11.872Z,26.45
2023-03-23T13:20:11.817Z,26.48
2023-03-23T13:24:11.768Z,26.47
2023-03-23T13:28:11.751Z,26.47
2023-03-23T13:32:11.942Z,26.45
2023-03-23T13:36:16.856Z,26.44
2023-03-23T13:40:13.071Z,26.42
2023-03-23T13:44:12.080Z,26.39
2023-03-23T13:48:12.205Z,26.39
2023-03-23T13:52:12.438Z,26.38
2023-03-23T13:56:17.321Z,26.38
2023-03-23T14:00:13.740Z,26.37
2023-03-23T14:04:12.756Z,26.35
2023-03-23T14:08:12.732Z,26.34
2023-03-23T14:12:13.259Z,26.33
2023-03-23T14:16:12.970Z,26.32
2023-03-23T14:20:13.180Z,26.31
2023-03-23T14:24:13.326Z,26.34
2023-03-23T14:28:13.516Z,26.37
2023-03-23T14:32:13.510Z,26.37
2023-03-23T14:36:13.438Z,26.35
2023-03-23T14:40:13.741Z,26.34
2023-03-23T14:44:13.372Z,26.35
2023-03-23T14:48:13.793Z,26.35
2023-03-23T14:52:13.790Z,26.35
2023-03-23T14:56:13.459Z,26.31
2023-03-23T15:00:13.757Z,26.30
2023-03-23T15:04:13.386Z,26.27
2023-03-23T15:08:13.384Z,26.24
2023-03-23T15:12:13.324Z,26.21
2023-03-23T15:16:13.318Z,26.21
2023-03-23T15:20:13.242Z,26.21
2023-03-23T15:24:13.231Z,26.21
2023-03-23T15:28:13.197Z,26.20
2023-03-23T15:32:13.173Z,26.19
2023-03-23T15:36:13.122Z,26.17
2023-03-23T15:40:13.079Z,26.15
2023-03-23T15:44:13.051Z,26.13
2023-03-23T15:48:13.049Z,26.11
2023-03-23T15:52:12.959Z,26.09
2023-03-23T15:56:12.939Z,26.07
2023-03-23T16:00:12.904Z,26.05
2023-03-23T16:04:12.901Z,26.04
2023-03-23T16:08:12.873Z,26.03
2023-03-23T16:12:12.789Z,26.02
2023-03-23T16:16:12.769Z,26.01
2023-03-23T16:20:12.746Z,25.99
2023-03-23T16:24:12.786Z,25.97
2023-03-23T16:28:12.867Z,25.95
2023-03-23T16:32:12.883Z,25.94
2023-03-23T16:36:13.354Z,25.92
2023-03-23T16:40:13.331Z,25.90
2023-03-23T16:44:13.265Z,25.89
2023-03-23T16:48:13.393Z,25.88
2023-03-23T16:52:13.455Z,25.86
2023-03-23T16:56:13.661Z,25.85
2023-03-23T17:00:13.673Z,25.83
2023-03-23T17:04:13.853Z,25.82
2023-03-23T17:08:13.981Z,25.81
2023-03-23T17:12:14.096Z,25.79
2023-03-23T17:16:14.312Z,25.78
2023-03-23T17:20:14.420Z,25.77
2023-03-23T17:24:14.547Z,25.76
2023-03-23T17:28:14.725Z,25.75
2023-03-23T17:32:14.909Z,25.74
2023-03-23T17:36:15.070Z,25.72
2023-03-23T17:40:15.222Z,25.71
2023-03-23T17:44:15.376Z,25.71
2023-03-23T17:48:15.568Z,25.70
2023-03-23T17:52:15.668Z,25.69
2023-03-23T17:56:15.839Z,25.68
2023-03-23T18:00:16.079Z,25.67
2023-03-23T18:04:16.115Z,25.67
2023-03-23T18:08:16.304Z,25.66
2023-03-23T18:12:16.497Z,25.65
2023-03-23T18:16:16.642Z,25.65
2023-03-23T18:20:16.869Z,25.63
2023-03-23T18:24:17.036Z,25.63
2023-03-23T18:28:17.235Z,25.62
2023-03-23T18:32:17.406Z,25.61
2023-03-23T18:36:17.672Z,25.59
2023-03-23T18:40:17.774Z,25.59
2023-03-23T18:44:17.964Z,25.58
2023-03-23T18:48:18.233Z,25.58
2023-03-23T18:52:18.374Z,25.57
2023-03-23T18:56:18.339Z,25.56
2023-03-23T19:00:18.324Z,25.56
2023-03-23T19:04:18.252Z,25.55
2023-03-23T19:08:18.281Z,25.55
2023-03-23T19:12:18.196Z,25.54
2023-03-23T19:16:18.211Z,25.54
2023-03-23T19:20:31.573Z,25.53
2023-03-23T19:24:19.149Z,25.52
2023-03-23T19:32:18.017Z,25.51
2023-03-23T19:36:18.521Z,25.51
2023-03-23T19:40:37.437Z,25.50
2023-03-23T19:44:18.953Z,25.49
2023-03-23T19:48:17.941Z,25.49
2023-03-23T19:56:18.057Z,25.47
2023-03-23T20:00:18.013Z,25.47
2023-03-23T20:04:17.963Z,25.46
2023-03-23T20:08:17.972Z,25.46
2023-03-23T20:12:17.917Z,25.46
2023-03-23T20:16:17.903Z,25.45
2023-03-23T20:20:17.826Z,25.45
2023-03-23T20:24:17.801Z,25.44
2023-03-23T20:28:17.769Z,25.43
2023-03-23T20:32:17.834Z,25.43
2023-03-23T20:36:17.858Z,25.42
2023-03-23T20:40:17.728Z,25.41
2023-03-23T20:44:17.695Z,25.41
2023-03-23T20:48:17.713Z,25.40
2023-03-23T20:52:17.613Z,25.40
2023-03-23T20:56:17.580Z,25.40
2023-03-23T21:00:17.554Z,25.39
2023-03-23T21:04:17.525Z,25.39
2023-03-23T21:08:17.514Z,25.38
2023-03-23T21:12:17.572Z,25.38
2023-03-23T21:16:17.562Z,25.38
2023-03-23T21:20:17.782Z,25.38
2023-03-23T21:24:17.968Z,25.37
2023-03-23T21:28:18.182Z,25.37
2023-03-23T21:32:18.337Z,25.37
2023-03-23T21:36:18.506Z,25.36
2023-03-23T21:40:18.726Z,25.36
2023-03-23T21:44:18.895Z,25.36
2023-03-23T21:48:18.972Z,25.36
2023-03-23T21:52:19.127Z,25.36
2023-03-23T21:56:19.300Z,25.36
2023-03-23T22:00:19.390Z,25.35
2023-03-23T22:04:19.508Z,25.35
2023-03-23T22:08:19.663Z,25.36
2023-03-23T22:12:19.826Z,25.35
2023-03-23T22:16:20.127Z,25.34
2023-03-23T22:20:20.073Z,25.35
2023-03-23T22:24:20.249Z,25.35
2023-03-23T22:28:20.417Z,25.34
2023-03-23T22:32:20.507Z,25.34
2023-03-23T22:36:20.596Z,25.34
2023-03-23T22:40:20.721Z,25.34
2023-03-23T22:44:20.840Z,25.33
2023-03-23T22:48:20.965Z,25.33
2023-03-23T22:52:21.041Z,25.32
2023-03-23T22:56:21.130Z,25.33
2023-03-23T23:00:21.223Z,25.31
2023-03-23T23:04:21.278Z,25.32
2023-03-23T23:08:21.194Z,25.31
2023-03-23T23:12:21.174Z,25.30
2023-03-23T23:16:21.160Z,25.31
2023-03-23T23:20:21.144Z,25.30
2023-03-23T23:24:21.071Z,25.30
2023-03-23T23:28:21.042Z,25.30
2023-03-23T23:32:20.998Z,25.29
2023-03-23T23:36:20.999Z,25.29
2023-03-23T23:40:20.941Z,25.29
2023-03-23T23:44:20.910Z,25.29
2023-03-23T23:48:20.873Z,25.27
2023-03-23T23:52:20.846Z,25.29
2023-03-23T23:56:20.818Z,25.28
